createdAt,value
2019-04-03T00:01:34.875Z,7.02
2019-04-03T00:04:04.660Z,6.94
2019-04-03T00:06:35.379Z,6.84
2019-04-03T00:09:06.498Z,6.84
2019-04-03T00:11:39.519Z,6.74
2019-04-03T00:14:06.811Z,6.74
2019-04-03T00:16:35.557Z,6.79
2019-04-03T00:19:04.206Z,6.76
2019-04-03T00:21:32.851Z,6.65
2019-04-03T00:24:01.519Z,6.46
2019-04-03T00:26:30.994Z,6.35
2019-04-03T00:28:59.890Z,6.52
2019-04-03T00:31:28.602Z,6.35
2019-04-03T00:47:16.721Z,6.14
2019-04-03T00:49:45.400Z,6.17
2019-04-03T00:52:14.262Z,6.14
2019-04-03T00:54:43.279Z,6.35
2019-04-03T00:57:12.095Z,6.25
2019-04-03T00:59:40.972Z,6.08
2019-04-03T01:02:09.860Z,5.99
2019-04-03T01:04:38.659Z,6.10
2019-04-03T01:07:07.439Z,6.14
2019-04-03T01:09:36.123Z,6.37
2019-04-03T01:12:06.343Z,6.18
2019-04-03T01:14:35.133Z,6.18
2019-04-03T01:17:04.518Z,6.18
2019-04-03T01:19:36.080Z,5.95
2019-04-03T01:22:03.994Z,5.79
2019-04-03T01:24:32.684Z,5.80
2019-04-03T01:27:03.954Z,5.63
2019-04-03T01:29:32.630Z,5.74
2019-04-03T01:32:01.238Z,5.85
2019-04-03T01:34:29.862Z,5.52
2019-04-03T01:36:58.541Z,5.58
2019-04-03T01:39:27.150Z,5.59
2019-04-03T01:42:00.193Z,5.63
2019-04-03T01:44:30.419Z,5.61
2019-04-03T01:46:59.321Z,5.42
2019-04-03T01:49:28.674Z,5.48
2019-04-03T01:52:00.259Z,5.45
2019-04-03T01:54:28.089Z,5.42
2019-04-03T01:56:57.570Z,5.39
2019-04-03T01:59:26.286Z,5.43
2019-04-03T02:01:55.042Z,5.54
2019-04-03T02:04:23.827Z,5.58
2019-04-03T02:06:52.509Z,5.24
2019-04-03T02:09:21.191Z,5.35
2019-04-03T02:11:49.874Z,5.30
2019-04-03T02:14:21.040Z,5.05
2019-04-03T02:16:48.903Z,5.00
2019-04-03T02:19:17.642Z,5.15
2019-04-03T02:21:46.366Z,5.30
2019-04-03T02:24:15.055Z,5.20
2019-04-03T02:26:43.909Z,5.17
2019-04-03T02:29:12.500Z,5.20
2019-04-03T02:31:41.353Z,5.25
2019-04-03T02:34:09.969Z,5.33
2019-04-03T02:36:38.635Z,5.28
2019-04-03T02:39:07.539Z,5.33
2019-04-03T02:41:37.382Z,5.21
2019-04-03T02:44:06.397Z,5.06
2019-04-03T02:46:35.035Z,5.13
2019-04-03T02:49:03.745Z,5.26
2019-04-03T02:51:32.642Z,5.26
2019-04-03T02:54:02.274Z,5.32
2019-04-03T02:56:31.818Z,5.28
2019-04-03T02:59:00.659Z,5.27
2019-04-03T03:01:29.274Z,5.22
2019-04-03T03:03:57.926Z,5.26
2019-04-03T03:06:27.277Z,5.26
2019-04-03T03:08:56.430Z,5.22
2019-04-03T03:11:25.319Z,5.19
2019-04-03T03:13:54.004Z,5.35
2019-04-03T03:16:23.196Z,5.20
2019-04-03T03:18:52.111Z,5.31
2019-04-03T03:21:21.410Z,5.34
2019-04-03T03:23:50.384Z,5.42
2019-04-03T03:26:19.065Z,5.20
2019-04-03T03:28:48.041Z,5.09
2019-04-03T03:31:19.076Z,5.22
2019-04-03T03:33:48.218Z,5.26
2019-04-03T03:36:22.697Z,5.16
2019-04-03T03:38:48.023Z,5.33
2019-04-03T03:41:22.106Z,5.29
2019-04-03T03:43:47.543Z,5.42
2019-04-03T03:46:16.152Z,5.22
2019-04-03T03:48:45.717Z,5.12
2019-04-03T03:51:15.574Z,5.15
2019-04-03T03:53:45.989Z,5.19
2019-04-03T03:56:15.421Z,5.24
2019-04-03T03:58:45.914Z,5.25
2019-04-03T04:01:14.726Z,5.59
2019-04-03T04:03:43.487Z,5.42
2019-04-03T04:06:12.985Z,5.22
2019-04-03T04:08:44.103Z,5.25
2019-04-03T04:11:12.425Z,5.16
2019-04-03T04:13:41.340Z,5.31
2019-04-03T04:16:10.051Z,5.14
2019-04-03T04:18:39.432Z,5.06
2019-04-03T04:21:10.533Z,5.08
2019-04-03T04:23:38.845Z,5.07
2019-04-03T04:26:07.955Z,5.11
2019-04-03T04:28:40.227Z,5.10
2019-04-03T04:31:08.065Z,5.17
2019-04-03T04:33:36.747Z,5.34
2019-04-03T04:36:05.548Z,5.16
2019-04-03T04:38:34.547Z,5.13
2019-04-03T04:41:03.344Z,4.77
2019-04-03T04:43:32.172Z,4.78
2019-04-03T04:46:02.237Z,4.96
2019-04-03T04:48:31.022Z,4.86
2019-04-03T04:50:59.809Z,4.89
2019-04-03T04:53:30.824Z,4.95
2019-04-03T04:55:59.797Z,4.95
2019-04-03T04:58:28.658Z,4.90
2019-04-03T05:00:57.320Z,4.83
2019-04-03T05:03:26.318Z,5.01
2019-04-03T05:05:57.267Z,5.07
2019-04-03T05:08:25.420Z,5.04
2019-04-03T05:10:54.094Z,5.08
2019-04-03T05:13:24.628Z,5.18
2019-04-03T05:15:54.161Z,5.19
2019-04-03T05:18:23.446Z,5.26
2019-04-03T05:20:54.194Z,5.27
2019-04-03T05:23:23.901Z,5.31
2019-04-03T05:25:53.912Z,5.28
2019-04-03T05:28:24.879Z,5.31
2019-04-03T05:30:53.284Z,5.29
2019-04-03T05:33:22.001Z,5.27
2019-04-03T05:35:50.900Z,5.45
2019-04-03T05:38:21.835Z,5.71
2019-04-03T05:40:50.587Z,5.74
2019-04-03T05:43:19.324Z,5.51
2019-04-03T05:45:48.111Z,5.64
2019-04-03T05:48:18.416Z,5.72
2019-04-03T05:50:47.385Z,5.73
2019-04-03T05:53:17.038Z,5.84
2019-04-03T05:55:46.066Z,5.76
2019-04-03T05:58:18.054Z,5.78
2019-04-03T06:00:46.926Z,6.11
2019-04-03T06:03:15.770Z,6.33
2019-04-03T06:05:44.748Z,6.10
2019-04-03T06:08:13.808Z,6.19
2019-04-03T06:10:42.936Z,6.20
2019-04-03T06:13:11.755Z,6.02
2019-04-03T06:15:40.737Z,6.00
2019-04-03T06:18:09.532Z,6.09
2019-04-03T06:20:38.213Z,6.24
2019-04-03T06:23:07.006Z,6.36
2019-04-03T06:25:35.973Z,6.46
2019-04-03T06:28:04.890Z,6.57
2019-04-03T06:30:33.566Z,6.47
2019-04-03T06:33:02.366Z,6.54
2019-04-03T06:35:31.074Z,6.69
2019-04-03T06:37:59.736Z,6.73
2019-04-03T06:40:28.640Z,6.60
2019-04-03T06:42:57.375Z,6.71
2019-04-03T06:45:26.982Z,6.77
2019-04-03T06:47:56.021Z,6.91
2019-04-03T06:50:24.810Z,7.34
2019-04-03T06:52:53.769Z,7.11
2019-04-03T06:55:30.409Z,7.27
2019-04-03T06:57:59.182Z,7.24
2019-04-03T07:00:27.813Z,7.43
2019-04-03T07:02:56.536Z,7.42
2019-04-03T07:05:27.323Z,7.61
2019-04-03T07:07:56.283Z,7.77
2019-04-03T07:10:26.114Z,7.88
2019-04-03T07:13:01.428Z,8.16
2019-04-03T07:15:30.502Z,7.88
2019-04-03T07:18:01.384Z,8.12
2019-04-03T07:20:30.046Z,8.21
2019-04-03T07:22:59.405Z,8.17
2019-04-03T07:25:28.645Z,8.24
2019-04-03T07:27:57.321Z,8.32
2019-04-03T07:30:26.178Z,8.22
2019-04-03T07:32:57.915Z,8.24
2019-04-03T07:35:25.647Z,8.42
2019-04-03T07:37:54.333Z,8.54
2019-04-03T07:40:24.652Z,8.52
2019-04-03T07:42:56.988Z,9.14
2019-04-03T07:45:25.713Z,8.99
2019-04-03T07:47:54.586Z,8.84
2019-04-03T07:50:23.395Z,9.11
2019-04-03T07:52:52.291Z,9.24
2019-04-03T07:55:22.101Z,9.45
2019-04-03T07:57:51.761Z,9.24
2019-04-03T08:00:20.800Z,9.32
2019-04-03T08:02:50.115Z,9.28
2019-04-03T08:05:19.090Z,9.47
2019-04-03T08:07:47.879Z,9.70
2019-04-03T08:10:16.774Z,9.56
2019-04-03T08:12:46.475Z,9.77
2019-04-03T08:15:15.175Z,10.11
2019-04-03T08:17:43.855Z,9.98
2019-04-03T08:20:14.033Z,9.97
2019-04-03T08:22:42.782Z,10.01
2019-04-03T08:25:12.518Z,10.00
2019-04-03T08:27:41.586Z,10.24
2019-04-03T08:30:10.943Z,10.60
2019-04-03T08:32:40.261Z,10.36
2019-04-03T08:35:20.409Z,10.58
2019-04-03T08:37:41.957Z,10.56
2019-04-03T08:40:11.060Z,10.73
2019-04-03T08:42:41.247Z,10.89
2019-04-03T08:45:12.078Z,10.80
2019-04-03T08:47:40.897Z,10.88
2019-04-03T08:50:11.667Z,11.19
2019-04-03T08:52:40.890Z,11.28
2019-04-03T08:55:12.939Z,11.39
2019-04-03T08:57:41.010Z,11.37
2019-04-03T09:00:11.914Z,11.26
2019-04-03T09:02:43.496Z,11.21
2019-04-03T09:05:13.715Z,11.64
2019-04-03T09:07:42.057Z,11.73
2019-04-03T09:10:11.193Z,11.69
2019-04-03T09:12:39.913Z,11.51
2019-04-03T09:15:09.352Z,11.75
2019-04-03T09:17:38.143Z,11.95
2019-04-03T09:20:07.125Z,11.89
2019-04-03T09:22:35.948Z,12.14
2019-04-03T09:25:06.419Z,12.35
2019-04-03T09:27:35.135Z,12.48
2019-04-03T09:30:06.186Z,12.26
2019-04-03T09:32:36.969Z,12.38
2019-04-03T09:35:07.038Z,12.45
2019-04-03T09:37:38.015Z,12.60
2019-04-03T09:40:07.161Z,12.99
2019-04-03T09:42:36.275Z,13.26
2019-04-03T09:45:06.501Z,13.49
2019-04-03T09:47:35.689Z,13.48
2019-04-03T09:50:07.586Z,13.75
2019-04-03T09:52:46.088Z,13.97
2019-04-03T09:55:08.381Z,14.12
2019-04-03T09:57:37.132Z,14.21
2019-04-03T10:00:10.632Z,14.16
2019-04-03T10:02:39.193Z,14.24
2019-04-03T10:05:08.541Z,14.17
2019-04-03T10:07:37.545Z,14.39
2019-04-03T10:10:09.114Z,14.70
2019-04-03T10:12:38.036Z,14.67
2019-04-03T10:15:10.031Z,14.65
2019-04-03T10:17:39.700Z,14.70
2019-04-03T10:20:10.218Z,14.96
2019-04-03T10:22:38.895Z,14.92
2019-04-03T10:25:10.625Z,15.01
2019-04-03T10:27:42.669Z,15.07
2019-04-03T10:30:12.216Z,15.20
2019-04-03T10:32:40.824Z,15.20
2019-04-03T10:35:09.572Z,15.34
2019-04-03T10:37:38.258Z,15.34
2019-04-03T10:40:10.226Z,15.41
2019-04-03T10:42:39.144Z,15.65
2019-04-03T10:45:09.241Z,15.72
2019-04-03T10:47:42.383Z,15.72
2019-04-03T10:50:08.898Z,15.67
2019-04-03T10:52:37.590Z,15.73
2019-04-03T10:55:08.029Z,15.72
2019-04-03T10:57:37.148Z,15.96
2019-04-03T11:00:10.452Z,15.98
2019-04-03T11:02:39.074Z,15.85
2019-04-03T11:05:08.540Z,15.98
2019-04-03T11:07:38.347Z,16.01
2019-04-03T11:10:08.991Z,16.24
2019-04-03T11:12:38.065Z,16.09
2019-04-03T11:15:11.576Z,16.26
2019-04-03T11:17:40.047Z,15.98
2019-04-03T11:20:10.824Z,16.00
2019-04-03T11:22:42.198Z,15.99
2019-04-03T11:25:15.207Z,16.09
2019-04-03T11:27:44.985Z,16.08
2019-04-03T11:30:18.215Z,16.15
2019-04-03T11:32:45.909Z,16.24
2019-04-03T11:35:16.293Z,16.23
2019-04-03T11:37:44.960Z,16.27
2019-04-03T11:40:17.308Z,16.32
2019-04-03T11:42:44.663Z,16.30
2019-04-03T11:45:13.715Z,16.37
2019-04-03T11:47:43.242Z,16.47
2019-04-03T11:50:13.462Z,16.50
2019-04-03T11:52:42.317Z,16.73
2019-04-03T11:55:12.840Z,16.63
2019-04-03T11:57:41.449Z,16.59
2019-04-03T12:00:13.453Z,16.78
2019-04-03T12:02:44.753Z,16.75
2019-04-03T12:05:19.949Z,16.94
2019-04-03T12:07:46.752Z,16.63
2019-04-03T12:10:17.969Z,16.65
2019-04-03T12:12:47.013Z,16.64
2019-04-03T12:15:16.616Z,16.70
2019-04-03T12:17:45.607Z,16.69
2019-04-03T12:20:16.743Z,16.42
2019-04-03T12:22:46.363Z,16.46
2019-04-03T12:25:16.169Z,16.49
2019-04-03T12:27:46.581Z,16.45
2019-04-03T12:30:18.308Z,16.46
2019-04-03T12:32:50.696Z,16.54
2019-04-03T12:35:19.630Z,16.67
2019-04-03T12:37:50.191Z,16.57
2019-04-03T12:40:19.483Z,16.55
2019-04-03T12:42:48.415Z,16.65
2019-04-03T12:45:18.252Z,16.81
2019-04-03T12:47:47.756Z,16.86
2019-04-03T12:50:17.858Z,16.87
2019-04-03T12:52:46.609Z,16.53
2019-04-03T12:55:15.525Z,16.56
2019-04-03T12:57:44.194Z,16.64
2019-04-03T13:00:15.164Z,16.73
2019-04-03T13:02:43.801Z,16.60
2019-04-03T13:05:12.669Z,16.54
2019-04-03T13:07:41.583Z,16.47
2019-04-03T13:10:11.234Z,16.65
2019-04-03T13:12:40.270Z,16.41
2019-04-03T13:15:10.728Z,16.35
2019-04-03T13:17:42.518Z,16.30
2019-04-03T13:20:11.855Z,16.62
2019-04-03T13:22:43.785Z,17.06
2019-04-03T13:25:12.867Z,16.93
2019-04-03T13:27:41.857Z,16.54
2019-04-03T13:30:13.304Z,16.58
2019-04-03T13:32:42.239Z,16.66
2019-04-03T13:35:11.310Z,16.61
2019-04-03T13:37:39.936Z,16.73
2019-04-03T13:40:09.288Z,16.58
2019-04-03T13:42:38.091Z,16.46
2019-04-03T13:45:10.549Z,16.40
2019-04-03T13:47:42.052Z,16.49
2019-04-03T13:50:10.579Z,16.46
2019-04-03T13:52:43.213Z,16.31
2019-04-03T13:55:10.342Z,16.22
2019-04-03T13:57:39.436Z,15.99
2019-04-03T14:00:18.335Z,15.90
2019-04-03T14:02:40.010Z,15.85
2019-04-03T14:05:09.847Z,15.84
2019-04-03T14:07:41.701Z,15.75
2019-04-03T14:10:10.890Z,16.00
2019-04-03T14:12:43.711Z,16.09
2019-04-03T14:15:11.063Z,16.17
2019-04-03T14:17:39.845Z,16.15
2019-04-03T14:20:09.920Z,16.08
2019-04-03T14:22:38.703Z,16.20
2019-04-03T14:25:17.969Z,16.17
2019-04-03T14:27:38.756Z,16.19
2019-04-03T14:30:12.000Z,15.97
2019-04-03T14:32:44.202Z,16.26
2019-04-03T14:35:40.550Z,16.32
2019-04-03T14:37:42.267Z,15.97
2019-04-03T14:40:14.513Z,16.48
2019-04-03T14:42:45.360Z,16.73
2019-04-03T14:45:15.248Z,16.47
2019-04-03T14:47:45.379Z,16.33
2019-04-03T14:50:14.991Z,16.04
2019-04-03T14:52:44.105Z,15.82
2019-04-03T14:55:19.884Z,15.80
2019-04-03T14:57:55.808Z,15.94
2019-04-03T15:00:28.906Z,15.66
2019-04-03T15:02:51.170Z,15.65
2019-04-03T15:05:20.020Z,15.48
2019-04-03T15:07:51.513Z,15.62
2019-04-03T15:10:21.910Z,15.78
2019-04-03T15:12:50.976Z,15.83
2019-04-03T15:15:20.268Z,15.71
2019-04-03T15:17:48.945Z,15.75
2019-04-03T15:20:19.177Z,15.44
2019-04-03T15:22:48.398Z,15.42
2019-04-03T15:25:19.537Z,15.52
2019-04-03T15:27:47.493Z,15.40
2019-04-03T15:30:16.960Z,15.49
2019-04-03T15:32:52.101Z,15.49
2019-04-03T15:35:22.187Z,15.37
2019-04-03T15:37:51.132Z,15.38
2019-04-03T15:40:24.510Z,15.39
2019-04-03T15:42:50.638Z,15.29
2019-04-03T15:45:20.010Z,15.45
2019-04-03T15:47:48.744Z,15.48
2019-04-03T15:50:17.643Z,15.57
2019-04-03T15:52:48.750Z,15.40
2019-04-03T15:55:16.809Z,15.35
2019-04-03T15:57:45.589Z,15.33
2019-04-03T16:00:16.918Z,15.45
2019-04-03T16:02:47.176Z,15.33
2019-04-03T16:05:16.725Z,15.30
2019-04-03T16:07:45.427Z,15.27
2019-04-03T16:10:14.325Z,15.15
2019-04-03T16:12:43.994Z,15.13
2019-04-03T16:15:13.157Z,15.15
2019-04-03T16:17:42.069Z,15.25
2019-04-03T16:20:11.487Z,15.14
2019-04-03T16:22:40.302Z,15.04
2019-04-03T16:25:09.230Z,15.16
2019-04-03T16:27:38.185Z,15.23
2019-04-03T16:30:09.688Z,15.02
2019-04-03T16:32:39.056Z,15.05
2019-04-03T16:35:08.468Z,15.01
2019-04-03T16:37:37.531Z,15.00
2019-04-03T16:40:08.117Z,14.99
2019-04-03T16:42:37.082Z,15.01
2019-04-03T16:45:09.311Z,14.89
2019-04-03T16:47:38.235Z,14.81
2019-04-03T16:50:08.287Z,14.63
2019-04-03T16:52:38.201Z,14.57
2019-04-03T16:55:09.095Z,14.54
2019-04-03T16:57:38.341Z,14.53
2019-04-03T17:00:09.495Z,14.55
2019-04-03T17:02:38.635Z,14.53
2019-04-03T17:05:12.079Z,14.40
2019-04-03T17:07:41.403Z,14.32
2019-04-03T17:10:14.217Z,14.10
2019-04-03T17:12:45.377Z,14.30
2019-04-03T17:15:14.345Z,14.28
2019-04-03T17:17:46.132Z,13.62
2019-04-03T17:20:15.228Z,13.37
2019-04-03T17:22:46.170Z,13.20
2019-04-03T17:25:16.478Z,13.00
2019-04-03T17:27:55.048Z,12.81
2019-04-03T17:30:20.149Z,12.82
2019-04-03T17:32:49.416Z,13.05
2019-04-03T17:35:20.244Z,12.59
2019-04-03T17:37:49.383Z,12.33
2019-04-03T17:40:19.261Z,11.89
2019-04-03T17:42:47.974Z,11.97
2019-04-03T17:45:16.793Z,11.90
2019-04-03T17:47:45.437Z,11.93
2019-04-03T17:50:15.258Z,11.99
2019-04-03T17:52:44.659Z,11.87
2019-04-03T17:55:15.950Z,11.83
2019-04-03T17:57:45.472Z,11.70
2019-04-03T18:00:16.512Z,11.68
2019-04-03T18:02:45.148Z,11.44
2019-04-03T18:05:14.066Z,11.13
2019-04-03T18:07:42.777Z,11.03
2019-04-03T18:10:12.917Z,10.95
2019-04-03T18:12:41.833Z,10.91
2019-04-03T18:15:10.949Z,10.70
2019-04-03T18:17:39.689Z,10.74
2019-04-03T18:20:12.535Z,10.78
2019-04-03T18:22:39.588Z,10.92
2019-04-03T18:25:08.697Z,10.86
2019-04-03T18:27:37.499Z,10.37
2019-04-03T18:30:11.322Z,10.16
2019-04-03T18:32:39.258Z,10.00
2019-04-03T18:35:09.006Z,9.82
2019-04-03T18:37:40.590Z,9.82
2019-04-03T18:40:10.011Z,9.84
2019-04-03T18:42:39.165Z,9.91
2019-04-03T18:45:08.391Z,9.98
2019-04-03T18:47:41.391Z,9.83
2019-04-03T18:50:10.042Z,9.80
2019-04-03T18:52:38.854Z,9.75
2019-04-03T18:55:08.676Z,9.60
2019-04-03T18:57:37.370Z,9.46
2019-04-03T19:00:09.049Z,9.67
2019-04-03T19:02:37.993Z,9.63
2019-04-03T19:05:13.721Z,9.77
2019-04-03T19:07:40.441Z,9.90
2019-04-03T19:10:09.356Z,9.98
2019-04-03T19:12:38.090Z,9.55
2019-04-03T19:15:07.630Z,9.62
2019-04-03T19:17:39.100Z,9.65
2019-04-03T19:20:11.023Z,9.59
2019-04-03T19:22:39.377Z,9.64
2019-04-03T19:25:10.731Z,9.56
2019-04-03T19:27:41.570Z,9.43
2019-04-03T19:30:11.994Z,9.59
2019-04-03T19:32:43.103Z,9.71
2019-04-03T19:35:12.676Z,9.64
2019-04-03T19:37:44.758Z,9.42
2019-04-03T19:40:12.141Z,9.47
2019-04-03T19:42:41.880Z,9.45
2019-04-03T19:45:12.927Z,9.25
2019-04-03T19:47:42.037Z,9.43
2019-04-03T19:50:10.798Z,9.34
2019-04-03T19:52:41.776Z,9.43
2019-04-03T19:55:10.890Z,9.45
2019-04-03T19:57:40.230Z,9.34
2019-04-03T20:00:11.051Z,9.25
2019-04-03T20:02:42.679Z,9.27
2019-04-03T20:05:10.282Z,9.20
2019-04-03T20:07:38.917Z,9.15
2019-04-03T20:10:11.791Z,8.78
2019-04-03T20:12:40.448Z,8.82
2019-04-03T20:15:10.820Z,8.58
2019-04-03T20:17:39.639Z,8.56
2019-04-03T20:20:08.960Z,8.74
2019-04-03T20:22:42.116Z,8.51
2019-04-03T20:25:09.252Z,8.22
2019-04-03T20:27:38.347Z,8.19
2019-04-03T20:30:08.822Z,8.25
2019-04-03T20:32:38.180Z,8.50
2019-04-03T20:35:09.983Z,8.67
2019-04-03T20:37:40.248Z,8.38
2019-04-03T20:40:09.276Z,8.39
2019-04-03T20:42:40.759Z,8.48
2019-04-03T20:45:09.101Z,8.62
2019-04-03T20:47:37.779Z,8.65
2019-04-03T20:50:07.732Z,8.72
2019-04-03T20:52:36.668Z,8.81
2019-04-03T20:55:07.632Z,8.72
2019-04-03T20:57:36.288Z,8.55
2019-04-03T21:00:07.931Z,8.43
2019-04-03T21:02:41.245Z,8.17
2019-04-03T21:05:09.270Z,8.29
2019-04-03T21:07:40.210Z,8.41
2019-04-03T21:10:09.372Z,8.41
2019-04-03T21:12:38.016Z,8.26
2019-04-03T21:15:08.617Z,8.34
2019-04-03T21:17:37.239Z,8.44
2019-04-03T21:20:06.815Z,8.39
2019-04-03T21:22:43.903Z,8.05
2019-04-03T21:25:21.377Z,8.09
2019-04-03T21:27:49.890Z,8.24
2019-04-03T21:30:18.828Z,8.22
2019-04-03T21:32:47.400Z,8.38
2019-04-03T21:35:16.104Z,8.00
2019-04-03T21:37:44.711Z,7.84
2019-04-03T21:40:15.181Z,8.03
2019-04-03T21:42:43.837Z,8.16
2019-04-03T21:45:12.482Z,8.18
2019-04-03T21:47:42.740Z,8.28
2019-04-03T21:50:11.505Z,8.20
2019-04-03T21:52:40.187Z,8.19
2019-04-03T21:55:09.098Z,8.07
2019-04-03T21:57:38.577Z,8.03
2019-04-03T22:00:14.018Z,7.96
2019-04-03T22:02:44.983Z,8.01
2019-04-03T22:05:13.246Z,7.66
2019-04-03T22:07:43.225Z,7.75
2019-04-03T22:10:13.474Z,7.72
2019-04-03T22:12:42.142Z,7.60
2019-04-03T22:15:13.638Z,7.61
2019-04-03T22:17:43.559Z,7.68
2019-04-03T22:20:11.824Z,7.88
2019-04-03T22:22:40.481Z,7.94
2019-04-03T22:25:09.773Z,7.77
2019-04-03T22:27:38.399Z,7.50
2019-04-03T22:30:07.544Z,7.44
2019-04-03T22:32:36.218Z,7.57
2019-04-03T22:35:06.874Z,7.36
2019-04-03T22:37:35.912Z,7.37
2019-04-03T22:40:06.174Z,7.60
2019-04-03T22:42:34.846Z,7.58
2019-04-03T22:45:03.524Z,7.61
2019-04-03T22:47:32.208Z,7.54
2019-04-03T22:50:00.841Z,7.50
2019-04-03T22:52:29.524Z,7.59
2019-04-03T22:54:58.136Z,7.46
2019-04-03T22:57:26.813Z,7.20
2019-04-03T22:59:55.506Z,7.08
2019-04-03T23:02:24.125Z,7.28
2019-04-03T23:04:52.733Z,7.49
2019-04-03T23:07:21.515Z,7.59
2019-04-03T23:09:50.218Z,7.51
2019-04-03T23:12:18.896Z,7.53
2019-04-03T23:14:47.538Z,7.50
2019-04-03T23:17:16.213Z,7.45
2019-04-03T23:19:44.865Z,7.60
2019-04-03T23:22:13.534Z,7.28
2019-04-03T23:24:42.151Z,7.07
2019-04-03T23:27:10.835Z,7.15
2019-04-03T23:29:39.460Z,7.28
2019-04-03T23:32:08.153Z,7.41
2019-04-03T23:34:36.867Z,7.47
2019-04-03T23:37:05.567Z,7.49
2019-04-03T23:39:34.199Z,7.22
2019-04-03T23:42:02.803Z,7.10
2019-04-03T23:44:31.469Z,7.14
2019-04-03T23:47:00.074Z,7.19
2019-04-03T23:49:28.780Z,7.25
2019-04-03T23:51:58.970Z,7.22
2019-04-03T23:54:27.826Z,7.22
2019-04-03T23:56:56.468Z,7.40
2019-04-03T23:59:25.145Z,7.49
